Time;durP1;ratioP1;P1;durP2;ratioP2;P2;SDS_P1;SDS_P2;PMS_P1;PMS_P2;Temp;Humidity;BMP_temperature;BMP_pressure;BME280_temperature;BME280_humidity;BME280_pressure;Samples;Min_cycle;Max_cycle;Signal;HPM_P1;HPM_P2
2022/09/15 00:00:53;;;;;;;7.68;1.73;;;;;;;;;;4993366;28;20041;-87
2022/09/15 00:03:20;;;;;;;9.15;2.28;;;15.40;99.90;;;;;;4984786;28;20045;-87
2022/09/15 00:05:46;;;;;;;7.38;1.75;;;15.40;99.90;;;;;;4991593;28;20107;-87
2022/09/15 00:08:12;;;;;;;8.68;1.30;;;15.30;99.90;;;;;;5005233;28;20471;-88
2022/09/15 00:10:47;;;;;;;5.45;1.23;;;15.40;99.90;;;;;;5006791;28;20053;-89
2022/09/15 00:13:13;;;;;;;7.60;1.45;;;15.50;99.90;;;;;;5001559;28;20045;-88
2022/09/15 00:15:38;;;;;;;4.45;1.20;;;15.60;99.90;;;;;;5006122;28;20077;-88
2022/09/15 00:18:05;;;;;;;8.65;1.65;;;15.70;99.90;;;;;;4979467;28;20077;-88
2022/09/15 00:20:31;;;;;;;5.65;1.55;;;15.50;99.90;;;;;;5007007;28;20045;-89
2022/09/15 00:22:56;;;;;;;5.63;1.20;;;15.40;99.90;;;;;;5021314;28;20516;-87
2022/09/15 00:25:22;;;;;;;5.25;1.17;;;15.40;99.90;;;;;;5018260;28;20064;-88
2022/09/15 00:27:48;;;;;;;5.72;1.30;;;;;;;;;;5007238;28;20041;-88
2022/09/15 00:30:14;;;;;;;8.75;1.30;;;15.40;99.90;;;;;;4995908;28;20041;-87
2022/09/15 00:32:39;;;;;;;5.20;1.42;;;15.40;99.90;;;;;;5022651;28;20084;-88
2022/09/15 00:35:06;;;;;;;8.18;1.50;;;;;;;;;;5001492;28;20042;-87
2022/09/15 00:37:33;;;;;;;4.82;1.42;;;15.20;99.90;;;;;;5023231;28;20044;-88
2022/09/15 00:39:58;;;;;;;6.47;1.20;;;15.30;99.90;;;;;;5005929;28;20390;-88
2022/09/15 00:42:24;;;;;;;4.65;1.50;;;15.40;99.90;;;;;;4986709;28;20048;-88
2022/09/15 00:44:54;;;;;;;6.20;1.52;;;15.00;99.90;;;;;;5006432;28;20083;-88
2022/09/15 00:47:23;;;;;;;10.15;1.50;;;15.50;99.90;;;;;;5019604;28;20651;-88
2022/09/15 00:49:54;;;;;;;4.35;1.08;;;15.70;99.90;;;;;;5029442;28;20037;-91
2022/09/15 00:52:26;;;;;;;6.22;1.35;;;;;;;;;;5032898;28;20033;-90
2022/09/15 00:54:51;;;;;;;8.30;1.83;;;15.30;99.90;;;;;;5016297;28;20387;-87
2022/09/15 00:57:22;;;;;;;7.05;2.08;;;;;;;;;;4990100;28;20041;-86
2022/09/15 00:59:48;;;;;;;5.95;1.52;;;;;;;;;;5006674;28;20089;-88
2022/09/15 01:02:21;;;;;;;6.70;1.38;;;15.30;99.90;;;;;;4984188;28;20140;-88
2022/09/15 01:04:49;;;;;;;9.15;1.95;;;16.20;99.90;;;;;;5004789;28;20414;-88
2022/09/15 01:07:20;;;;;;;7.05;1.58;;;15.20;99.90;;;;;;5019520;28;20052;-89
2022/09/15 01:09:56;;;;;;;6.55;1.27;;;15.20;99.90;;;;;;5017527;28;20037;-87
2022/09/15 01:12:23;;;;;;;6.53;1.30;;;15.50;99.90;;;;;;5006444;28;20128;-88
2022/09/15 01:14:49;;;;;;;5.28;1.30;;;15.40;99.90;;;;;;4987809;28;20037;-88
2022/09/15 01:17:27;;;;;;;8.57;1.50;;;15.40;99.90;;;;;;5023350;28;20457;-89
2022/09/15 01:20:14;;;;;;;8.90;1.83;;;15.80;99.90;;;;;;4990228;28;20037;-89
2022/09/15 01:22:58;;;;;;;7.70;1.60;;;15.20;99.90;;;;;;4997557;28;20100;-91
2022/09/15 01:25:28;;;;;;;8.87;2.63;;;;;;;;;;4980840;28;20052;-88
2022/09/15 01:28:21;;;;;;;6.53;1.50;;;15.50;99.90;;;;;;4984854;28;20723;-89
2022/09/15 01:31:07;;;;;;;8.20;1.42;;;15.50;99.90;;;;;;5024232;28;20072;-88
2022/09/15 01:33:54;;;;;;;8.60;1.42;;;15.70;99.90;;;;;;5003094;28;20404;-87
2022/09/15 01:36:27;;;;;;;9.07;1.60;;;;;;;;;;5023856;28;20206;-90
2022/09/15 01:39:06;;;;;;;8.70;1.55;;;15.50;99.90;;;;;;4992795;28;20247;-89
2022/09/15 01:41:49;;;;;;;7.55;1.45;;;15.60;99.90;;;;;;5024264;28;20044;-89
2022/09/15 01:44:23;;;;;;;6.90;1.27;;;15.60;99.90;;;;;;5009723;28;20509;-89
2022/09/15 01:46:54;;;;;;;7.68;1.90;;;15.80;99.90;;;;;;5006779;28;20413;-87
2022/09/15 01:49:28;;;;;;;5.57;1.60;;;15.90;99.90;;;;;;5021252;28;20033;-88
2022/09/15 01:51:54;;;;;;;7.28;1.40;;;15.40;99.90;;;;;;4998105;28;20519;-90
2022/09/15 01:54:23;;;;;;;6.15;1.23;;;;;;;;;;5010553;28;20037;-89
2022/09/15 01:56:49;;;;;;;6.82;1.65;;;15.20;99.90;;;;;;5007586;28;20119;-88
2022/09/15 01:59:15;;;;;;;8.18;1.63;;;15.50;99.90;;;;;;5007866;28;20042;-88
2022/09/15 02:01:46;;;;;;;5.80;1.15;;;16.20;99.90;;;;;;5012641;28;20045;-90
2022/09/15 02:04:31;;;;;;;8.90;1.55;;;;;;;;;;4999424;28;20492;-89
2022/09/15 02:06:59;;;;;;;;;;;15.50;99.90;;;;;;5029263;28;20065;-87
2022/09/15 02:09:34;;;;;;;8.05;1.65;;;15.20;99.90;;;;;;4996055;28;19925;-89
2022/09/15 02:12:11;;;;;;;6.57;1.20;;;15.60;99.90;;;;;;4991707;28;20053;-89
2022/09/15 02:14:51;;;;;;;5.35;1.60;;;15.00;99.90;;;;;;4994251;28;20064;-89
2022/09/15 02:17:19;;;;;;;5.82;1.13;;;15.30;99.90;;;;;;5019875;28;21257;-89
2022/09/15 02:20:08;;;;;;;7.68;1.35;;;15.80;99.90;;;;;;5002790;28;20037;-90
2022/09/15 02:22:36;;;;;;;6.65;1.40;;;;;;;;;;5068193;23;20050;-61
2022/09/15 02:25:08;;;;;;;5.95;1.27;;;;;;;;;;5006480;28;20038;-61
2022/09/15 02:27:40;;;;;;;6.65;1.77;;;;;;;;;;5005708;28;20034;-61
2022/09/15 02:30:10;;;;;;;6.55;1.55;;;;;;;;;;4999365;28;20424;-61
2022/09/15 02:32:37;;;;;;;8.90;1.75;;;;;;;;;;5003828;28;20050;-61
2022/09/15 02:35:05;;;;;;;7.53;1.25;;;;;;;;;;5004823;28;20057;-60
2022/09/15 02:37:32;;;;;;;8.10;1.88;;;;;;;;;;5008772;28;20104;-59
2022/09/15 02:39:59;;;;;;;8.13;1.70;;;15.40;99.90;;;;;;5008437;28;20151;-61
2022/09/15 02:42:29;;;;;;;9.40;1.50;;;;;;;;;;5005284;28;20488;-61
2022/09/15 02:44:56;;;;;;;6.90;1.40;;;;;;;;;;5004837;28;20353;-61
2022/09/15 02:47:22;;;;;;;5.57;1.40;;;;;;;;;;4998535;28;20073;-59
2022/09/15 02:49:48;;;;;;;5.65;1.20;;;15.40;99.90;;;;;;5002235;28;20512;-60
2022/09/15 02:52:14;;;;;;;7.22;1.55;;;;;;;;;;4997099;28;20104;-61
2022/09/15 02:54:43;;;;;;;5.47;1.15;;;;;;;;;;5002956;28;20038;-61
2022/09/15 02:57:09;;;;;;;7.60;1.60;;;15.50;99.90;;;;;;5005576;28;20048;-61
2022/09/15 03:02:19;;;;;;;5.78;1.35;;;15.60;99.90;;;;;;4995668;28;20057;-61
2022/09/15 03:04:46;;;;;;;6.35;1.35;;;15.30;99.90;;;;;;5000052;28;20447;-61
2022/09/15 03:07:12;;;;;;;5.65;1.40;;;15.70;99.90;;;;;;5000088;28;20353;-61
2022/09/15 03:09:37;;;;;;;7.00;1.33;;;15.80;99.90;;;;;;4997355;28;20129;-61
2022/09/15 03:12:04;;;;;;;5.60;1.27;;;;;;;;;;5007576;28;20437;-61
2022/09/15 03:14:31;;;;;;;8.10;2.15;;;;;;;;;;4999877;28;20531;-60
2022/09/15 03:16:58;;;;;;;4.57;1.30;;;;;;;;;;4998720;28;20117;-61
2022/09/15 03:19:24;;;;;;;4.75;1.30;;;;;;;;;;4995761;28;20488;-61
2022/09/15 03:21:50;;;;;;;8.30;1.67;;;;;;;;;;5008545;28;20084;-61
2022/09/15 03:24:18;;;;;;;7.75;1.70;;;;;;;;;;5005589;28;20491;-61
2022/09/15 03:26:44;;;;;;;6.28;1.38;;;;;;;;;;4998046;28;20220;-60
2022/09/15 03:29:10;;;;;;;8.18;1.70;;;15.40;99.90;;;;;;4999424;28;20477;-61
2022/09/15 03:31:36;;;;;;;6.50;1.40;;;15.50;99.90;;;;;;4996337;28;20046;-61
2022/09/15 03:34:01;;;;;;;6.38;2.25;;;15.40;99.90;;;;;;4998829;28;20073;-61
2022/09/15 03:36:27;;;;;;;7.50;1.65;;;15.40;99.90;;;;;;4995249;28;20117;-60
2022/09/15 03:38:56;;;;;;;5.78;1.52;;;;;;;;;;4999804;28;20061;-61
2022/09/15 03:41:23;;;;;;;7.05;1.85;;;15.40;99.90;;;;;;5004928;28;20073;-61
2022/09/15 03:43:48;;;;;;;11.35;1.98;;;15.30;99.90;;;;;;4998036;28;20469;-60
2022/09/15 03:46:14;;;;;;;8.27;1.65;;;15.40;99.90;;;;;;4998963;28;20285;-61
2022/09/15 03:48:40;;;;;;;7.63;1.52;;;;;;;;;;4995332;28;20042;-61
2022/09/15 03:51:07;;;;;;;6.20;1.38;;;15.10;99.90;;;;;;5011133;28;20037;-61
2022/09/15 03:53:34;;;;;;;6.72;1.60;;;;;;;;;;5010423;28;20057;-60
2022/09/15 03:56:07;;;;;;;5.35;1.38;;;15.20;99.90;;;;;;4993623;28;20034;-61
2022/09/15 03:58:33;;;;;;;8.20;1.38;;;15.50;99.90;;;;;;4997524;28;20496;-60
2022/09/15 04:00:58;;;;;;;7.75;1.60;;;15.50;99.90;;;;;;4992584;28;20045;-60
2022/09/15 04:03:24;;;;;;;6.45;1.58;;;;;;;;;;4999494;28;20391;-61
2022/09/15 04:05:50;;;;;;;7.47;2.05;;;15.40;99.90;;;;;;4999852;28;20054;-61
2022/09/15 04:08:16;;;;;;;7.10;1.75;;;15.40;99.90;;;;;;4998668;28;20553;-60
2022/09/15 04:10:41;;;;;;;7.95;1.88;;;15.30;99.90;;;;;;5008411;28;20049;-60
2022/09/15 04:13:07;;;;;;;6.00;1.58;;;15.20;99.90;;;;;;4994053;28;20034;-60
2022/09/15 04:15:33;;;;;;;6.57;1.45;;;15.30;99.90;;;;;;4999216;28;20038;-61
2022/09/15 04:17:58;;;;;;;7.05;1.70;;;15.10;99.90;;;;;;4996042;28;20036;-61
2022/09/15 04:20:24;;;;;;;10.30;1.65;;;;;;;;;;4999718;28;20113;-60
2022/09/15 04:22:50;;;;;;;7.63;1.77;;;15.10;99.90;;;;;;4999408;28;20133;-59
2022/09/15 04:25:16;;;;;;;9.57;1.50;;;;;;;;;;4996354;28;20069;-60
2022/09/15 04:27:42;;;;;;;7.50;1.50;;;;;;;;;;4998184;28;20107;-61
2022/09/15 04:30:09;;;;;;;8.10;1.70;;;;;;;;;;5001443;28;20117;-61
2022/09/15 04:32:35;;;;;;;6.60;1.60;;;;;;;;;;5000762;28;20272;-60
2022/09/15 04:35:02;;;;;;;8.18;2.33;;;;;;;;;;5004723;28;20205;-60
2022/09/15 04:37:27;;;;;;;4.95;1.40;;;15.20;99.90;;;;;;4994489;28;20370;-58
2022/09/15 04:39:53;;;;;;;8.57;1.63;;;15.20;99.90;;;;;;4994809;28;20026;-58
2022/09/15 04:42:20;;;;;;;8.98;1.73;;;;;;;;;;4998001;28;20038;-59
2022/09/15 04:44:46;;;;;;;7.43;1.85;;;;;;;;;;4994767;28;20041;-58
2022/09/15 04:47:12;;;;;;;6.50;2.28;;;;;;;;;;4996179;28;20045;-58
2022/09/15 04:49:38;;;;;;;5.65;1.25;;;;;;;;;;5000080;28;20140;-58
2022/09/15 04:52:04;;;;;;;7.57;1.88;;;;;;;;;;4994541;28;20077;-60
2022/09/15 04:54:30;;;;;;;6.25;1.55;;;15.50;99.90;;;;;;5006788;28;20042;-60
2022/09/15 04:56:56;;;;;;;9.45;2.78;;;;;;;;;;4997510;28;20048;-59
2022/09/15 04:59:22;;;;;;;5.50;1.55;;;15.30;99.90;;;;;;5003702;28;20042;-59
2022/09/15 05:01:48;;;;;;;7.35;1.63;;;;;;;;;;5001782;28;20049;-59
2022/09/15 05:04:14;;;;;;;11.27;1.92;;;15.30;99.90;;;;;;5002734;28;20038;-59
2022/09/15 05:06:40;;;;;;;6.05;1.42;;;;;;;;;;5003453;28;20041;-59
2022/09/15 05:09:07;;;;;;;7.32;1.50;;;;;;;;;;4994668;28;20396;-59
2022/09/15 05:11:32;;;;;;;6.03;1.73;;;15.40;99.90;;;;;;5000488;28;20062;-59
2022/09/15 05:13:59;;;;;;;6.28;1.75;;;15.20;99.90;;;;;;5004089;28;20453;-59
2022/09/15 05:16:26;;;;;;;8.25;1.90;;;;;;;;;;5003325;28;20116;-58
2022/09/15 05:18:53;;;;;;;8.73;2.58;;;;;;;;;;4994694;28;20089;-60
2022/09/15 05:21:20;;;;;;;8.73;2.35;;;15.30;99.90;;;;;;4997920;28;20121;-59
2022/09/15 05:23:46;;;;;;;9.70;2.55;;;;;;;;;;5007390;28;20038;-60
2022/09/15 05:26:14;;;;;;;11.10;1.75;;;;;;;;;;5004721;28;20104;-60
2022/09/15 05:28:40;;;;;;;12.07;2.35;;;15.40;99.90;;;;;;5001888;28;20071;-60
2022/09/15 05:31:11;;;;;;;9.27;1.60;;;;;;;;;;5002991;28;20120;-59
2022/09/15 05:33:37;;;;;;;7.88;1.80;;;;;;;;;;5001896;28;20046;-60
2022/09/15 05:36:03;;;;;;;9.27;1.90;;;;;;;;;;4994730;28;20042;-60
2022/09/15 05:38:30;;;;;;;9.10;1.58;;;15.20;99.90;;;;;;4998491;28;20385;-60
2022/09/15 05:41:03;;;;;;;12.25;2.20;;;;;;;;;;4994990;28;20480;-59
2022/09/15 05:43:31;;;;;;;7.60;1.80;;;15.50;99.90;;;;;;4999921;28;20125;-60
2022/09/15 05:45:57;;;;;;;8.40;1.73;;;15.30;99.90;;;;;;5005179;28;20042;-60
2022/09/15 05:48:23;;;;;;;8.75;1.60;;;15.40;99.90;;;;;;5007935;28;20510;-60
2022/09/15 05:50:50;;;;;;;5.70;1.50;;;;;;;;;;4997270;28;20408;-60
2022/09/15 05:53:17;;;;;;;7.75;1.60;;;;;;;;;;5000131;28;20042;-59
2022/09/15 05:55:43;;;;;;;8.07;1.83;;;;;;;;;;4993272;28;20066;-60
2022/09/15 05:58:09;;;;;;;13.98;2.28;;;15.30;99.90;;;;;;5007291;28;20034;-60
2022/09/15 06:00:34;;;;;;;8.52;1.50;;;15.20;99.90;;;;;;4993239;28;20408;-60
2022/09/15 06:03:00;;;;;;;6.00;1.48;;;15.00;99.90;;;;;;4997989;28;20073;-60
2022/09/15 06:05:26;;;;;;;6.82;1.38;;;15.20;99.90;;;;;;5001991;28;20518;-60
2022/09/15 06:07:53;;;;;;;7.03;1.55;;;15.20;99.90;;;;;;4992066;28;20042;-60
2022/09/15 06:10:21;;;;;;;5.30;1.35;;;;;;;;;;5001970;28;20411;-60
2022/09/15 06:12:48;;;;;;;4.90;1.55;;;15.40;99.90;;;;;;5002914;28;20069;-60
2022/09/15 06:15:14;;;;;;;7.68;1.45;;;;;;;;;;5002190;28;20457;-60
2022/09/15 06:17:40;;;;;;;6.43;1.30;;;;;;;;;;5005548;28;20129;-59
2022/09/15 06:20:06;;;;;;;10.88;1.95;;;;;;;;;;5012249;28;20157;-60
2022/09/15 06:22:32;;;;;;;7.72;1.63;;;;;;;;;;5004621;28;20069;-60
2022/09/15 06:25:05;;;;;;;7.68;1.48;;;;;;;;;;4995908;28;20038;-60
2022/09/15 06:27:30;;;;;;;8.20;1.73;;;15.30;99.90;;;;;;5003061;28;20126;-60
2022/09/15 06:29:56;;;;;;;6.45;1.40;;;15.40;99.90;;;;;;4995453;28;20556;-60
2022/09/15 06:32:22;;;;;;;6.78;1.20;;;15.30;99.90;;;;;;5002945;28;20037;-60
2022/09/15 06:34:47;;;;;;;5.13;1.40;;;15.20;99.90;;;;;;5005322;28;20042;-59
2022/09/15 06:37:14;;;;;;;10.40;2.20;;;;;;;;;;5003931;28;20041;-60
2022/09/15 06:39:42;;;;;;;4.80;1.10;;;15.40;99.90;;;;;;5003072;28;20042;-59
2022/09/15 06:42:08;;;;;;;8.48;2.22;;;;;;;;;;5008163;28;20037;-60
2022/09/15 06:44:33;;;;;;;5.25;1.20;;;15.50;99.90;;;;;;5003081;28;20041;-60
2022/09/15 06:46:59;;;;;;;7.45;1.10;;;;;;;;;;4992549;28;20038;-59
2022/09/15 06:49:25;;;;;;;5.45;1.35;;;15.50;99.90;;;;;;5012894;28;20038;-60
2022/09/15 06:51:51;;;;;;;4.93;1.30;;;15.50;99.90;;;;;;5001479;28;20487;-59
2022/09/15 06:54:17;;;;;;;5.78;1.05;;;;;;;;;;5006527;28;20094;-60
2022/09/15 06:56:43;;;;;;;5.65;1.52;;;;;;;;;;4997954;28;20049;-60
2022/09/15 06:59:13;;;;;;;4.43;1.10;;;15.60;99.90;;;;;;4999074;28;20374;-59
2022/09/15 07:01:39;;;;;;;10.88;1.70;;;;;;;;;;5001898;28;20038;-60
2022/09/15 07:04:08;;;;;;;5.22;1.40;;;15.60;99.90;;;;;;4998820;28;20117;-60
2022/09/15 07:06:36;;;;;;;6.22;1.23;;;15.70;99.90;;;;;;5003216;28;20469;-58
2022/09/15 07:09:02;;;;;;;7.90;2.17;;;;;;;;;;4996242;28;20066;-59
2022/09/15 07:11:29;;;;;;;6.40;1.10;;;15.70;99.90;;;;;;5000967;28;20048;-59
2022/09/15 07:13:57;;;;;;;7.88;1.42;;;15.50;99.90;;;;;;4995760;28;20038;-59
2022/09/15 07:16:24;;;;;;;6.18;1.30;;;15.80;99.90;;;;;;4999342;28;20069;-58
2022/09/15 07:19:04;;;;;;;7.03;1.65;;;;;;;;;;4992960;28;20130;-59
2022/09/15 07:21:30;;;;;;;8.57;1.45;;;15.80;99.90;;;;;;4998187;28;20047;-60
2022/09/15 07:23:56;;;;;;;6.28;1.40;;;16.20;99.90;;;;;;5008218;28;20049;-59
2022/09/15 07:26:24;;;;;;;5.82;1.40;;;;;;;;;;4997017;28;20473;-59
2022/09/15 07:28:54;;;;;;;7.68;1.50;;;;;;;;;;5003088;28;20514;-58
2022/09/15 07:31:21;;;;;;;8.05;1.52;;;;;;;;;;5012929;28;20038;-60
2022/09/15 07:33:48;;;;;;;6.57;1.65;;;;;;;;;;5001825;28;20037;-60
2022/09/15 07:36:14;;;;;;;9.90;1.60;;;;;;;;;;4995550;28;20234;-60
2022/09/15 07:38:41;;;;;;;9.60;1.70;;;;;;;;;;4998667;28;20049;-60
2022/09/15 07:41:12;;;;;;;5.63;1.85;;;15.20;99.90;;;;;;5001041;28;20034;-60
2022/09/15 07:43:39;;;;;;;8.20;1.50;;;;;;;;;;4996983;28;20285;-59
2022/09/15 07:46:05;;;;;;;10.75;1.65;;;15.60;99.90;;;;;;5000426;28;20483;-60
2022/09/15 07:48:31;;;;;;;7.13;1.23;;;15.70;99.90;;;;;;5000999;28;20046;-60
2022/09/15 07:50:58;;;;;;;16.73;1.98;;;15.90;99.90;;;;;;5009066;28;20542;-59
2022/09/15 07:53:26;;;;;;;5.65;1.40;;;16.70;99.90;;;;;;5003055;28;20113;-60
2022/09/15 07:55:53;;;;;;;8.02;1.83;;;;;;;;;;5001296;28;20034;-60
2022/09/15 07:58:19;;;;;;;9.02;1.38;;;;;;;;;;4998982;28;20125;-60
2022/09/15 08:00:46;;;;;;;6.63;1.70;;;16.00;99.90;;;;;;4993967;28;20110;-60
2022/09/15 08:03:12;;;;;;;7.85;1.55;;;16.70;99.90;;;;;;5006298;28;20052;-60
2022/09/15 08:05:38;;;;;;;7.13;1.67;;;16.80;99.90;;;;;;5009988;28;20041;-60
2022/09/15 08:08:03;;;;;;;5.78;1.60;;;17.00;99.90;;;;;;4994954;28;20042;-60
2022/09/15 08:10:29;;;;;;;8.32;1.80;;;17.20;99.90;;;;;;5003250;28;20155;-60
2022/09/15 08:12:54;;;;;;;6.20;1.20;;;16.60;99.90;;;;;;4993121;28;20104;-59
2022/09/15 08:15:20;;;;;;;6.35;1.80;;;16.50;99.90;;;;;;4999123;28;20030;-60
2022/09/15 08:17:46;;;;;;;5.80;1.30;;;17.30;99.90;;;;;;4992637;28;20121;-60
2022/09/15 08:20:15;;;;;;;7.10;1.20;;;;;;;;;;5008478;28;20407;-59
2022/09/15 08:22:41;;;;;;;6.72;1.50;;;17.30;99.90;;;;;;5071032;23;20329;-61
2022/09/15 08:25:07;;;;;;;6.43;1.63;;;16.90;99.90;;;;;;5024776;28;20036;-61
2022/09/15 08:27:33;;;;;;;7.50;1.30;;;17.30;99.90;;;;;;5003225;28;20091;-61
2022/09/15 08:29:58;;;;;;;5.07;1.95;;;17.30;99.90;;;;;;5031222;28;20419;-61
2022/09/15 08:32:24;;;;;;;4.10;1.00;;;17.10;99.90;;;;;;5020639;28;20033;-61
2022/09/15 08:34:49;;;;;;;3.90;1.20;;;17.00;99.90;;;;;;5011659;28;20033;-61
2022/09/15 08:37:15;;;;;;;3.13;0.90;;;17.20;99.90;;;;;;4998477;28;20047;-61
2022/09/15 08:39:41;;;;;;;4.25;1.00;;;17.90;99.90;;;;;;5019485;28;20041;-61
2022/09/15 08:42:22;;;;;;;6.25;1.70;;;17.90;99.90;;;;;;5014702;28;20042;-61
2022/09/15 08:45:11;;;;;;;4.32;1.00;;;17.50;99.90;;;;;;5029860;28;20415;-61
2022/09/15 08:47:44;;;;;;;6.07;1.52;;;18.20;99.90;;;;;;5015703;28;20407;-61
2022/09/15 08:50:30;;;;;;;4.13;1.23;;;17.10;99.90;;;;;;5024598;28;20037;-61
2022/09/15 08:53:02;;;;;;;7.03;1.33;;;17.30;99.90;;;;;;5021273;28;20038;-61
2022/09/15 08:55:40;;;;;;;5.88;1.40;;;17.60;99.90;;;;;;5015333;28;20033;-60
2022/09/15 08:58:15;;;;;;;7.55;1.55;;;17.40;99.90;;;;;;5025592;28;20038;-60
2022/09/15 09:00:43;;;;;;;4.97;1.38;;;18.60;99.90;;;;;;5022438;28;20045;-61
2022/09/15 09:03:34;;;;;;;9.65;1.80;;;18.10;99.90;;;;;;5021368;28;20045;-61
2022/09/15 09:06:18;;;;;;;5.93;1.23;;;17.50;99.90;;;;;;5025456;28;20113;-61
2022/09/15 09:09:01;;;;;;;5.20;1.23;;;17.30;99.90;;;;;;5018422;28;20045;-61
2022/09/15 09:11:48;;;;;;;6.72;1.67;;;18.20;99.90;;;;;;5018822;28;20030;-60
2022/09/15 09:14:38;;;;;;;8.25;1.33;;;17.80;99.90;;;;;;4996788;28;20056;-61
2022/09/15 09:17:32;;;;;;;7.60;1.35;;;18.00;99.90;;;;;;5016848;28;20238;-61
2022/09/15 09:20:16;;;;;;;5.85;1.50;;;17.30;99.90;;;;;;5017699;28;20049;-61
2022/09/15 09:22:46;;;;;;;6.88;1.60;;;18.50;99.90;;;;;;5030153;28;20056;-61
2022/09/15 09:25:18;;;;;;;8.82;1.90;;;19.00;99.90;;;;;;5018839;28;20638;-62
2022/09/15 09:27:45;;;;;;;5.20;1.33;;;17.80;99.90;;;;;;5021866;28;20075;-61
2022/09/15 09:30:22;;;;;;;8.23;1.40;;;18.30;99.90;;;;;;5017509;28;20046;-61
2022/09/15 09:33:15;;;;;;;9.18;1.50;;;17.40;99.90;;;;;;5010586;28;20083;-61
2022/09/15 09:35:44;;;;;;;6.55;1.45;;;18.20;99.90;;;;;;5023122;28;20219;-61
2022/09/15 09:38:13;;;;;;;7.88;2.13;;;18.60;99.90;;;;;;5015617;28;20034;-61
2022/09/15 09:40:40;;;;;;;6.22;1.85;;;18.50;99.90;;;;;;5021483;28;20047;-60
2022/09/15 09:43:07;;;;;;;5.55;1.00;;;18.50;99.90;;;;;;5025150;28;20084;-61
2022/09/15 09:45:33;;;;;;;3.55;0.85;;;18.40;99.90;;;;;;5001258;28;20052;-60
2022/09/15 09:48:14;;;;;;;6.70;2.22;;;18.90;99.90;;;;;;5026969;28;20120;-61
2022/09/15 09:50:43;;;;;;;6.10;1.48;;;18.60;99.90;;;;;;5028631;28;20041;-61
2022/09/15 09:53:16;;;;;;;8.98;1.50;;;19.00;99.90;;;;;;5023179;28;20112;-61
2022/09/15 09:55:44;;;;;;;8.38;2.90;;;18.40;99.90;;;;;;5016826;28;20452;-61
2022/09/15 09:58:16;;;;;;;7.25;1.60;;;18.80;99.90;;;;;;5020752;28;20037;-61
2022/09/15 10:00:41;;;;;;;6.20;1.92;;;19.70;99.90;;;;;;5022814;28;20052;-61
2022/09/15 10:03:22;;;;;;;4.93;1.30;;;18.50;99.90;;;;;;5019625;28;20349;-61
2022/09/15 10:06:05;;;;;;;6.45;1.10;;;19.00;99.90;;;;;;5017014;28;20041;-62
2022/09/15 10:08:32;;;;;;;4.15;1.20;;;19.30;99.90;;;;;;5021069;28;20041;-61
2022/09/15 10:11:09;;;;;;;6.15;1.40;;;19.50;99.90;;;;;;5029997;28;20153;-62
2022/09/15 10:13:48;;;;;;;9.18;1.30;;;19.50;99.90;;;;;;5024077;28;20076;-62
2022/09/15 10:16:18;;;;;;;7.47;1.20;;;19.00;99.90;;;;;;5027333;28;20129;-60
2022/09/15 10:18:44;;;;;;;6.80;1.25;;;19.40;99.90;;;;;;5016252;28;20038;-62
2022/09/15 10:21:13;;;;;;;5.15;1.23;;;19.70;99.90;;;;;;5001386;28;20037;-62
2022/09/15 10:23:38;;;;;;;5.47;1.27;;;18.70;99.90;;;;;;5024771;28;20055;-61
2022/09/15 10:26:21;;;;;;;5.43;1.27;;;18.30;99.90;;;;;;5025063;28;20037;-61
2022/09/15 10:29:11;;;;;;;4.57;1.00;;;18.40;99.90;;;;;;5021180;28;20029;-62
2022/09/15 10:31:37;;;;;;;7.47;1.30;;;19.30;99.90;;;;;;4992683;28;20033;-61
2022/09/15 10:34:23;;;;;;;4.63;1.52;;;18.80;99.90;;;;;;5024786;28;20068;-61
2022/09/15 10:36:48;;;;;;;5.63;1.20;;;19.50;99.90;;;;;;5020699;28;20491;-62
2022/09/15 10:39:33;;;;;;;4.28;1.30;;;19.60;99.90;;;;;;5019627;28;20029;-62
2022/09/15 10:42:17;;;;;;;4.03;1.00;;;19.50;99.90;;;;;;5027820;28;20057;-60
2022/09/15 10:44:56;;;;;;;4.13;1.15;;;19.10;99.90;;;;;;5003985;28;20125;-61
2022/09/15 10:47:41;;;;;;;4.85;1.00;;;19.40;99.90;;;;;;5016923;28;20049;-61
2022/09/15 10:50:17;;;;;;;2.63;0.90;;;19.80;99.90;;;;;;5025173;28;20084;-61
2022/09/15 10:53:09;;;;;;;4.10;1.10;;;18.90;99.90;;;;;;5005544;28;20045;-61
2022/09/15 10:56:00;;;;;;;4.07;0.90;;;18.80;99.90;;;;;;5006365;28;20056;-61
2022/09/15 10:58:46;;;;;;;4.05;1.10;;;19.40;99.90;;;;;;5021901;28;20082;-62
2022/09/15 11:01:17;;;;;;;3.97;1.00;;;19.60;99.90;;;;;;5017902;28;20455;-61
2022/09/15 11:04:10;;;;;;;4.15;1.25;;;18.90;99.90;;;;;;5004003;28;20037;-61
2022/09/15 11:06:48;;;;;;;4.57;1.08;;;19.00;99.90;;;;;;5031246;28;20113;-61
2022/09/15 11:09:25;;;;;;;3.72;1.00;;;19.30;99.90;;;;;;5021046;28;20049;-61
2022/09/15 11:12:11;;;;;;;4.40;1.15;;;19.10;99.90;;;;;;5019906;28;20049;-61
2022/09/15 11:14:51;;;;;;;4.22;1.10;;;19.10;99.90;;;;;;5015948;28;20046;-62
2022/09/15 11:17:35;;;;;;;4.13;1.40;;;19.00;99.90;;;;;;5019233;28;20030;-61
2022/09/15 11:20:31;;;;;;;4.97;1.10;;;18.80;99.90;;;;;;5025116;28;20066;-61
2022/09/15 11:23:08;;;;;;;4.05;1.30;;;18.90;99.90;;;;;;5032129;28;20108;-61
2022/09/15 11:25:41;;;;;;;5.05;1.80;;;19.60;99.90;;;;;;5001426;28;20068;-62
2022/09/15 11:28:22;;;;;;;9.02;1.30;;;19.00;99.90;;;;;;5020379;28;20518;-61
2022/09/15 11:31:01;;;;;;;5.97;1.27;;;19.10;99.90;;;;;;5018969;28;20046;-62
2022/09/15 11:33:43;;;;;;;5.20;1.10;;;19.50;99.90;;;;;;5031951;28;20515;-61
2022/09/15 11:36:14;;;;;;;7.32;1.40;;;19.20;99.90;;;;;;5021005;28;20538;-62
2022/09/15 11:38:57;;;;;;;5.45;1.50;;;19.10;99.90;;;;;;5000373;28;20066;-61
2022/09/15 11:41:33;;;;;;;4.80;1.17;;;19.40;99.90;;;;;;5032209;28;20034;-61
2022/09/15 11:44:24;;;;;;;5.05;1.10;;;19.70;99.90;;;;;;5022535;28;20120;-62
2022/09/15 11:46:58;;;;;;;4.88;1.30;;;20.30;99.90;;;;;;5013612;28;20048;-62
2022/09/15 11:49:34;;;;;;;4.10;1.00;;;20.20;99.90;;;;;;5013914;28;20037;-61
2022/09/15 11:52:05;;;;;;;5.10;1.52;;;19.10;99.90;;;;;;5031258;28;20073;-62
2022/09/15 11:54:50;;;;;;;6.10;1.30;;;19.50;99.90;;;;;;5012466;28;20041;-61
2022/09/15 11:57:20;;;;;;;3.35;0.88;;;19.90;99.90;;;;;;5014244;28;20038;-61
2022/09/15 12:00:03;;;;;;;5.00;1.17;;;21.20;99.90;;;;;;5017408;28;20121;-61
2022/09/15 12:02:38;;;;;;;6.55;1.20;;;20.90;99.90;;;;;;4997503;28;20062;-62
2022/09/15 12:05:10;;;;;;;5.15;1.05;;;22.90;99.90;;;;;;5022777;28;20407;-61
2022/09/15 12:07:50;;;;;;;6.25;1.35;;;22.70;99.90;;;;;;5016947;28;20125;-61
2022/09/15 12:10:25;;;;;;;5.10;1.20;;;22.40;99.90;;;;;;5031453;28;20060;-61
2022/09/15 12:12:52;;;;;;;5.53;1.20;;;22.00;99.90;;;;;;5012945;28;20577;-62
2022/09/15 12:15:25;;;;;;;8.13;1.42;;;20.50;99.90;;;;;;5020337;28;20047;-62
2022/09/15 12:18:18;;;;;;;7.15;1.30;;;20.10;99.90;;;;;;5005401;28;20048;-62
2022/09/15 12:20:55;;;;;;;9.13;1.58;;;20.40;99.90;;;;;;4975074;28;20128;-62
2022/09/15 12:23:35;;;;;;;6.95;1.83;;;20.50;99.90;;;;;;5020341;28;20106;-61
2022/09/15 12:26:19;;;;;;;8.07;1.70;;;20.10;99.90;;;;;;5023185;28;20087;-61
2022/09/15 12:29:01;;;;;;;7.65;1.40;;;20.40;99.90;;;;;;5025892;28;20454;-62
2022/09/15 12:31:36;;;;;;;5.43;1.30;;;21.00;99.90;;;;;;5015257;28;20056;-62
2022/09/15 12:34:31;;;;;;;5.65;1.10;;;21.00;99.90;;;;;;5017536;28;20042;-62
2022/09/15 12:37:07;;;;;;;5.72;1.20;;;20.30;99.90;;;;;;5022058;28;20124;-62
2022/09/15 12:39:38;;;;;;;4.78;1.10;;;23.60;99.90;;;;;;5022114;28;20063;-60
2022/09/15 12:42:13;;;;;;;3.10;0.90;;;25.20;99.90;;;;;;5014387;28;20042;-60
2022/09/15 12:44:59;;;;;;;2.80;0.80;;;25.80;99.90;;;;;;5020038;28;20045;-60
2022/09/15 12:47:47;;;;;;;2.90;0.85;;;26.40;99.90;;;;;;5019876;28;20514;-61
2022/09/15 12:50:15;;;;;;;2.88;1.00;;;27.30;99.90;;;;;;5019381;28;20042;-61
2022/09/15 12:52:54;;;;;;;3.50;1.00;;;28.10;99.90;;;;;;5016026;28;20104;-60
2022/09/15 12:55:41;;;;;;;3.70;1.10;;;28.00;99.90;;;;;;5001204;28;20780;-61
2022/09/15 12:58:17;;;;;;;4.93;1.30;;;26.50;99.90;;;;;;5010051;28;20145;-61
2022/09/15 13:00:43;;;;;;;6.00;1.23;;;24.20;99.90;;;;;;4995227;28;20400;-61
2022/09/15 13:03:56;;;;;;;6.18;1.70;;;22.90;99.90;;;;;;5016821;28;20419;-60
2022/09/15 13:06:29;;;;;;;8.13;1.95;;;22.10;99.90;;;;;;5023789;28;20111;-59
2022/09/15 13:09:02;;;;;;;8.23;1.80;;;19.70;99.90;;;;;;5005513;28;20496;-60
2022/09/15 13:11:35;;;;;;;8.38;1.75;;;19.30;99.90;;;;;;5020457;28;20078;-60
2022/09/15 13:14:07;;;;;;;6.20;1.70;;;17.80;99.90;;;;;;5021402;28;20149;-60
2022/09/15 13:16:58;;;;;;;7.30;1.50;;;18.50;99.90;;;;;;5019494;28;20117;-59
2022/09/15 13:19:34;;;;;;;6.80;1.63;;;17.60;99.90;;;;;;4996381;28;20046;-59
2022/09/15 13:22:26;;;;;;;7.82;1.52;;;18.30;99.90;;;;;;5019181;28;20041;-61
2022/09/15 13:25:10;;;;;;;6.47;1.30;;;19.50;99.90;;;;;;5024642;28;20073;-60
2022/09/15 13:27:38;;;;;;;6.07;1.40;;;20.40;99.90;;;;;;5018362;28;20033;-61
2022/09/15 13:30:19;;;;;;;6.97;1.58;;;20.90;99.90;;;;;;4999996;28;20112;-60
2022/09/15 13:33:09;;;;;;;8.15;1.40;;;22.40;99.90;;;;;;5017475;28;20164;-61
2022/09/15 13:35:50;;;;;;;6.90;1.40;;;22.90;99.90;;;;;;5027157;28;20034;-61
2022/09/15 13:38:27;;;;;;;6.65;1.60;;;22.70;99.90;;;;;;5015367;28;20128;-61